Time;durP1;ratioP1;P1;durP2;ratioP2;P2;SDS_P1;SDS_P2;PMS_P1;PMS_P2;Temp;Humidity;BMP_temperature;BMP_pressure;BME280_temperature;BME280_humidity;BME280_pressure;Samples;Min_cycle;Max_cycle;Signal;HPM_P1;HPM_P2
2021/11/30 00:01:22;;;;;;;7.20;3.80;;;;;;;8.33;60.05;101021.38;4924961;28;114808;-64
2021/11/30 00:03:49;;;;;;;7.35;3.90;;;;;;;8.31;60.15;101015.28;4914077;28;113807;-64
2021/11/30 00:06:17;;;;;;;9.27;3.60;;;;;;;8.29;59.96;101001.28;4923135;28;123871;-64
2021/11/30 00:08:44;;;;;;;8.55;3.92;;;;;;;8.29;60.18;101001.28;4916847;28;123991;-64
2021/11/30 00:11:11;;;;;;;9.88;4.45;;;;;;;8.29;59.99;101006.56;4919841;28;114248;-64
2021/11/30 00:13:40;;;;;;;9.85;4.07;;;;;;;8.30;59.96;101002.13;4912881;28;114677;-64
2021/11/30 00:16:08;;;;;;;9.68;4.10;;;;;;;8.28;60.10;101015.38;4920440;28;124512;-64
2021/11/30 00:18:35;;;;;;;15.30;5.13;;;;;;;8.26;60.10;101011.91;4930503;28;123943;-65
2021/11/30 00:21:06;;;;;;;13.25;4.32;;;;;;;8.25;59.74;101007.56;4932965;28;114696;-64
2021/11/30 00:23:35;;;;;;;15.90;5.25;;;;;;;8.23;59.81;101001.50;4930918;28;113849;-64
2021/11/30 00:26:05;;;;;;;16.83;4.82;;;;;;;8.24;59.69;100991.78;4931721;28;123851;-64
2021/11/30 00:28:32;;;;;;;19.13;5.18;;;;;;;8.22;59.94;100983.91;4932063;28;123831;-64
2021/11/30 00:31:00;;;;;;;15.32;4.95;;;;;;;8.21;59.76;100987.47;4931435;28;115252;-64
2021/11/30 00:33:27;;;;;;;19.20;5.63;;;;;;;8.18;59.86;100988.44;4930837;28;115320;-64
2021/11/30 00:35:54;;;;;;;16.05;5.03;;;;;;;8.17;60.21;100986.72;4930770;28;123754;-64
2021/11/30 00:38:22;;;;;;;13.77;4.70;;;;;;;8.15;59.99;100979.75;4921968;28;124080;-65
2021/11/30 00:40:49;;;;;;;14.63;4.85;;;;;;;8.12;59.87;100966.69;4925828;28;115068;-65
2021/11/30 00:43:24;;;;;;;14.75;4.95;;;;;;;8.12;59.58;100971.97;4932399;28;113857;-65
2021/11/30 00:48:38;;;;;;;15.43;4.68;;;;;;;8.09;59.99;100974.69;4923095;28;123967;-65
2021/11/30 00:51:10;;;;;;;13.07;4.97;;;;;;;8.08;59.74;100967.66;4912417;28;114521;-65
2021/11/30 00:53:39;;;;;;;15.85;4.82;;;;;;;8.06;59.97;100962.47;4932467;28;114879;-65
2021/11/30 00:56:07;;;;;;;12.65;4.90;;;;;;;8.04;60.00;100947.59;4914841;28;124073;-65
2021/11/30 00:58:34;;;;;;;12.07;4.10;;;;;;;8.04;59.90;100942.31;4922934;28;124124;-64
2021/11/30 01:01:03;;;;;;;12.85;4.68;;;;;;;8.03;59.67;100924.78;4923012;28;114424;-65
2021/11/30 01:03:30;;;;;;;11.70;4.80;;;;;;;8.03;59.78;100924.78;4925866;28;113064;-67
2021/11/30 01:05:58;;;;;;;10.32;4.35;;;;;;;8.02;59.84;100923.03;4921785;28;124125;-65
2021/11/30 01:08:25;;;;;;;8.38;4.18;;;;;;;8.02;59.72;100925.69;4915947;28;124709;-65
2021/11/30 01:10:53;;;;;;;11.85;3.75;;;;;;;7.99;59.86;100929.28;4928251;28;115220;-65
2021/11/30 01:13:20;;;;;;;9.77;4.05;;;;;;;7.97;59.50;100915.28;4933005;28;113998;-65
2021/11/30 01:15:48;;;;;;;7.93;3.70;;;;;;;7.96;59.60;100917.03;4929811;28;124742;-64
2021/11/30 01:18:16;;;;;;;8.30;3.75;;;;;;;7.96;59.88;100903.84;4915822;28;124843;-65
2021/11/30 01:20:43;;;;;;;9.35;3.92;;;;;;;7.94;59.60;100905.69;4929630;28;115647;-65
2021/11/30 01:23:10;;;;;;;9.25;3.88;;;;;;;7.93;59.63;100909.25;4933852;28;116109;-65
2021/11/30 01:25:38;;;;;;;7.50;3.80;;;;;;;7.92;59.35;100915.44;4929374;28;124076;-65
2021/11/30 01:28:06;;;;;;;9.43;3.50;;;;;;;7.91;59.45;100908.44;4930604;28;124274;-65
2021/11/30 01:30:33;;;;;;;7.82;3.55;;;;;;;7.92;59.32;100920.69;4915943;28;114304;-65
2021/11/30 01:33:00;;;;;;;5.75;3.22;;;;;;;7.91;59.60;100916.34;4931237;28;114022;-65
2021/11/30 01:35:28;;;;;;;8.65;3.55;;;;;;;7.92;59.49;100918.06;4929796;28;123226;-65
2021/11/30 01:37:55;;;;;;;8.98;3.47;;;;;;;7.90;59.65;100919.88;4913030;28;124583;-65
2021/11/30 01:40:24;;;;;;;6.93;3.35;;;;;;;7.89;59.52;100928.72;4921330;28;115242;-65
2021/11/30 01:42:54;;;;;;;7.70;3.35;;;;;;;7.86;59.56;100913.00;4930624;28;112978;-65
2021/11/30 01:49:11;;;;;;;5.85;2.92;;;;;;;7.82;59.55;100914.03;4928922;28;124212;-64
2021/11/30 01:51:00;;;;;;;9.57;3.20;;;;;;;7.79;59.46;100906.19;4917163;28;114087;-64
2021/11/30 01:53:27;;;;;;;5.57;2.95;;;;;;;7.78;59.69;100896.59;4922684;28;113803;-65
2021/11/30 01:55:54;;;;;;;7.13;3.03;;;;;;;7.78;59.75;100891.31;4921927;28;123874;-64
2021/11/30 01:58:22;;;;;;;6.07;2.78;;;;;;;7.75;59.66;100879.06;4925166;28;124216;-64
2021/11/30 02:00:49;;;;;;;11.80;2.90;;;;;;;7.72;59.51;100862.47;4912051;28;114469;-63
2021/11/30 02:03:19;;;;;;;6.63;3.08;;;;;;;7.69;59.81;100862.59;4911557;28;114238;-63
2021/11/30 02:05:47;;;;;;;8.55;2.58;;;;;;;7.66;59.65;100860.06;4928297;28;123994;-64
2021/11/30 02:08:14;;;;;;;5.53;2.70;;;;;;;7.62;59.95;100856.66;4929102;28;123986;-63
2021/11/30 02:10:41;;;;;;;6.60;2.90;;;;;;;7.58;59.91;100850.63;4928212;28;115286;-64
2021/11/30 02:13:09;;;;;;;6.25;2.90;;;;;;;7.54;59.88;100838.47;4930699;28;114701;-63
2021/11/30 02:15:40;;;;;;;7.30;2.88;;;;;;;7.51;60.17;100825.38;4909632;28;123882;-63
2021/11/30 02:18:12;;;;;;;5.82;2.88;;;;;;;7.48;59.85;100822.84;4922953;28;124005;-63
2021/11/30 02:20:42;;;;;;;5.43;2.85;;;;;;;7.45;59.74;100811.56;4909259;28;114322;-63
2021/11/30 02:23:17;;;;;;;6.93;2.58;;;;;;;7.44;59.92;100800.16;4925186;28;114103;-63
2021/11/30 02:25:44;;;;;;;7.18;2.88;;;;;;;7.42;59.93;100815.13;4921354;28;124287;-63
2021/11/30 02:28:11;;;;;;;6.18;2.95;;;;;;;7.40;60.11;100809.06;4925189;28;123596;-63
2021/11/30 02:30:38;;;;;;;6.70;3.40;;;;;;;7.40;60.18;100793.25;4936072;28;112753;-63
2021/11/30 02:33:06;;;;;;;4.75;2.85;;;;;;;7.38;60.51;100789.78;4923548;28;113752;-63
2021/11/30 02:35:33;;;;;;;7.60;3.10;;;;;;;7.38;60.25;100784.53;4917497;28;123981;-64
2021/11/30 02:38:07;;;;;;;6.40;3.20;;;;;;;7.37;60.54;100777.56;4925700;28;125092;-64
2021/11/30 02:40:36;;;;;;;7.40;3.38;;;;;;;7.36;60.41;100766.13;4923999;28;114491;-64
2021/11/30 02:43:04;;;;;;;5.60;3.20;;;;;;;7.38;60.59;100763.44;4912784;28;113931;-64
2021/11/30 02:45:31;;;;;;;6.75;3.60;;;;;;;7.38;60.43;100758.19;4909330;28;124068;-64
2021/11/30 02:47:59;;;;;;;5.68;3.50;;;;;;;7.37;60.70;100756.47;4912749;28;123714;-64
2021/11/30 02:50:27;;;;;;;5.90;3.80;;;;;;;7.39;60.72;100754.66;4928307;28;114324;-64
2021/11/30 02:52:55;;;;;;;6.85;3.90;;;;;;;7.39;61.31;100736.19;4931119;28;113820;-64
2021/11/30 02:55:23;;;;;;;7.07;4.22;;;;;;;7.39;61.17;100733.56;4922268;28;123045;-65
2021/11/30 02:57:50;;;;;;;7.50;4.32;;;;;;;7.40;61.30;100732.63;4923672;28;123809;-65
2021/11/30 03:00:17;;;;;;;9.23;4.78;;;;;;;7.41;60.95;100731.75;4927485;28;116358;-64
2021/11/30 03:02:44;;;;;;;7.15;4.15;;;;;;;7.43;61.23;100729.91;4930706;28;114761;-64
2021/11/30 03:05:12;;;;;;;7.93;4.80;;;;;;;7.46;61.23;100724.56;4914518;28;124780;-64
2021/11/30 03:07:39;;;;;;;7.45;4.40;;;;;;;7.48;61.34;100722.72;4920741;28;124785;-64
2021/11/30 03:10:11;;;;;;;9.10;4.80;;;;;;;7.50;61.37;100720.88;4918535;28;114074;-64
2021/11/30 03:12:39;;;;;;;8.73;4.70;;;;;;;7.54;61.68;100717.22;4933965;28;113915;-65
2021/11/30 03:15:12;;;;;;;8.98;4.80;;;;;;;7.56;61.55;100714.56;4927693;28;123234;-64
2021/11/30 03:17:39;;;;;;;7.35;4.78;;;;;;;7.58;61.34;100697.75;4912296;28;124110;-65
2021/11/30 03:20:07;;;;;;;8.27;4.90;;;;;;;7.60;61.80;100693.28;4910853;28;113939;-65
2021/11/30 03:22:35;;;;;;;10.13;5.35;;;;;;;7.63;61.37;100689.72;4924781;28;114694;-64
2021/11/30 03:25:02;;;;;;;8.35;4.55;;;;;;;7.66;61.68;100678.19;4930552;28;124176;-65
2021/11/30 03:27:30;;;;;;;7.40;4.88;;;;;;;7.69;61.60;100693.91;4922402;28;124212;-65
2021/11/30 03:29:57;;;;;;;11.57;5.68;;;;;;;7.72;61.51;100688.50;4913089;28;114121;-65
2021/11/30 03:35:01;;;;;;;11.63;5.60;;;;;;;7.76;61.91;100679.56;4929988;28;123994;-64
2021/11/30 03:37:29;;;;;;;9.70;5.82;;;;;;;7.78;61.94;100673.34;4916696;28;123780;-65
2021/11/30 03:39:57;;;;;;;10.38;5.85;;;;;;;7.82;62.03;100663.53;4910242;28;114835;-65
2021/11/30 03:42:25;;;;;;;9.10;5.47;;;;;;;7.83;61.90;100654.69;4929570;28;114628;-65
2021/11/30 03:44:53;;;;;;;9.73;5.28;;;;;;;7.86;61.78;100653.75;4933638;28;124502;-64
2021/11/30 03:47:22;;;;;;;9.13;5.68;;;;;;;7.89;61.74;100648.34;4930346;28;124694;-64
2021/11/30 03:49:49;;;;;;;11.10;5.80;;;;;;;7.91;62.02;100652.66;4910693;28;115561;-64
2021/11/30 03:52:16;;;;;;;7.70;5.05;;;;;;;7.93;62.06;100639.38;4926138;28;114984;-64
2021/11/30 03:54:43;;;;;;;8.65;5.85;;;;;;;7.97;62.05;100644.50;4930777;28;124009;-64
2021/11/30 03:57:11;;;;;;;10.75;6.00;;;;;;;7.99;62.28;100645.31;4932601;28;122627;-64
2021/11/30 03:59:38;;;;;;;9.50;5.93;;;;;;;8.02;62.00;100638.19;4913335;28;114010;-64
2021/11/30 04:02:05;;;;;;;8.40;5.57;;;;;;;8.06;62.02;100634.53;4912817;28;113815;-65
2021/11/30 04:04:41;;;;;;;10.30;5.57;;;;;;;8.09;62.10;100630.00;4911306;28;123918;-64
2021/11/30 04:07:09;;;;;;;10.50;6.13;;;;;;;8.12;62.38;100623.75;4948598;28;122858;-64
2021/11/30 04:09:36;;;;;;;9.73;6.10;;;;;;;8.15;62.19;100631.53;4932585;28;114242;-64
2021/11/30 04:12:05;;;;;;;10.00;6.18;;;;;;;8.15;62.26;100623.63;4933157;28;114499;-65
2021/11/30 04:14:32;;;;;;;9.80;6.35;;;;;;;8.18;62.18;100612.97;4925936;28;124102;-65
2021/11/30 04:17:00;;;;;;;9.20;6.20;;;;;;;8.22;62.15;100624.25;4931025;28;124255;-65
2021/11/30 04:19:27;;;;;;;9.13;6.07;;;;;;;8.23;62.35;100611.00;4930939;28;114659;-65
2021/11/30 04:21:54;;;;;;;10.57;6.68;;;;;;;8.28;62.23;100609.03;4924116;28;114292;-65
2021/11/30 04:24:21;;;;;;;9.50;6.45;;;;;;;8.29;62.29;100600.22;4923124;28;125170;-65
2021/11/30 04:26:48;;;;;;;9.10;6.63;;;;;;;8.33;62.33;100604.44;4920971;28;124382;-65
2021/11/30 04:29:15;;;;;;;12.00;7.15;;;;;;;8.36;62.67;100600.81;4931214;28;114632;-65
2021/11/30 04:31:42;;;;;;;9.88;6.82;;;;;;;8.39;62.39;100601.56;4930919;28;114071;-65
2021/11/30 04:34:10;;;;;;;11.98;7.38;;;;;;;8.44;62.77;100600.53;4932263;28;123304;-65
2021/11/30 04:36:37;;;;;;;10.77;6.85;;;;;;;8.47;62.56;100598.63;4916198;28;124861;-65
2021/11/30 04:39:05;;;;;;;12.45;6.75;;;;;;;8.50;62.79;100587.97;4915556;28;115414;-65
2021/11/30 04:41:33;;;;;;;8.82;6.70;;;;;;;8.54;62.48;100584.28;4931836;28;114787;-65
2021/11/30 04:44:00;;;;;;;9.88;6.95;;;;;;;8.57;62.91;100583.31;4930999;28;123909;-65
2021/11/30 04:46:38;;;;;;;11.68;6.90;;;;;;;8.62;62.83;100576.03;4931710;28;124297;-65
2021/11/30 04:49:27;;;;;;;9.50;6.07;;;;;;;8.65;63.04;100575.91;4930490;28;115476;-64
2021/11/30 04:51:54;;;;;;;10.45;7.15;;;;;;;8.69;62.76;100582.78;4931000;28;113915;-65
2021/11/30 04:54:22;;;;;;;11.35;6.55;;;;;;;8.72;63.12;100565.94;4930785;28;123730;-65
2021/11/30 04:56:51;;;;;;;10.25;6.57;;;;;;;8.77;62.87;100564.84;4931666;28;125433;-65
2021/11/30 04:59:20;;;;;;;9.43;6.28;;;;;;;8.80;62.83;100568.25;4916828;28;114033;-65
2021/11/30 05:01:48;;;;;;;9.38;6.75;;;;;;;8.84;63.05;100559.31;4930693;28;114359;-65
2021/11/30 05:04:16;;;;;;;10.07;6.55;;;;;;;8.87;63.29;100567.09;4916061;28;124768;-65
2021/11/30 05:06:44;;;;;;;10.52;6.50;;;;;;;8.90;63.22;100564.31;4911308;28;124423;-65
2021/11/30 05:09:11;;;;;;;10.82;6.85;;;;;;;8.95;63.08;100557.06;4923341;28;114180;-64
2021/11/30 05:11:39;;;;;;;11.75;6.53;;;;;;;8.98;63.29;100553.44;4927183;28;113711;-65
2021/11/30 05:14:06;;;;;;;10.18;6.28;;;;;;;9.01;63.47;100545.38;4910725;28;125272;-65
2021/11/30 05:16:34;;;;;;;10.32;7.00;;;;;;;9.05;63.06;100541.69;4929741;28;123810;-65
2021/11/30 05:19:02;;;;;;;8.90;6.35;;;;;;;9.08;63.15;100531.84;4930165;28;114921;-65
2021/11/30 05:21:29;;;;;;;9.50;6.63;;;;;;;9.12;63.47;100543.97;4929609;28;113794;-65
2021/11/30 05:24:01;;;;;;;8.65;6.05;;;;;;;9.15;63.11;100533.28;4929626;28;123826;-65
2021/11/30 05:26:28;;;;;;;9.18;5.97;;;;;;;9.20;63.03;100534.88;4931333;28;124022;-65
2021/11/30 05:28:56;;;;;;;8.43;5.97;;;;;;;9.22;63.57;100538.31;4929953;28;114056;-65
2021/11/30 05:31:23;;;;;;;7.30;5.50;;;;;;;9.24;63.47;100531.16;4927195;28;114065;-65
2021/11/30 05:33:51;;;;;;;9.18;6.00;;;;;;;9.27;63.25;100531.03;4926279;28;123729;-64
2021/11/30 05:36:20;;;;;;;9.07;5.88;;;;;;;9.30;63.40;100541.44;4929772;28;124340;-64
2021/11/30 05:38:47;;;;;;;10.10;6.18;;;;;;;9.32;63.39;100540.47;4930742;28;114284;-65
2021/11/30 05:41:14;;;;;;;9.98;5.93;;;;;;;9.37;63.52;100539.41;4924470;28;114901;-65
2021/11/30 05:43:42;;;;;;;8.23;5.72;;;;;;;9.38;63.33;100533.16;4912874;28;124475;-65
2021/11/30 05:46:09;;;;;;;8.52;5.90;;;;;;;9.42;63.67;100538.25;4924287;28;123967;-64
2021/11/30 05:48:36;;;;;;;9.68;6.40;;;;;;;9.44;63.82;100533.78;4909189;28;114367;-65
2021/11/30 05:51:04;;;;;;;8.18;5.95;;;;;;;9.48;63.33;100540.63;4910736;28;114531;-65
2021/11/30 05:53:32;;;;;;;8.55;5.72;;;;;;;9.51;63.68;100537.84;4919068;28;123820;-65
2021/11/30 05:56:02;;;;;;;8.70;5.45;;;;;;;9.54;63.55;100535.06;4916286;28;123981;-65
2021/11/30 05:58:30;;;;;;;7.53;5.43;;;;;;;9.57;63.69;100530.53;4918126;28;114248;-66
2021/11/30 06:01:07;;;;;;;8.50;5.28;;;;;;;9.60;64.02;100525.13;4914794;28;114043;-65
2021/11/30 06:03:55;;;;;;;9.38;5.78;;;;;;;9.63;63.87;100528.50;4916142;28;123486;-65
2021/11/30 06:06:22;;;;;;;8.38;5.32;;;;;;;9.68;63.83;100542.38;4923371;28;123577;-65
2021/11/30 06:08:50;;;;;;;7.30;5.10;;;;;;;9.70;63.87;100535.22;4919246;28;114367;-65
2021/11/30 06:11:17;;;;;;;8.77;5.47;;;;;;;9.74;64.03;100541.22;4915833;28;115121;-65
2021/11/30 06:13:45;;;;;;;7.85;5.05;;;;;;;9.79;63.80;100549.78;4922360;28;124769;-65
2021/11/30 06:16:12;;;;;;;7.60;4.82;;;;;;;9.82;63.83;100544.34;4909913;28;123992;-65
2021/11/30 06:18:39;;;;;;;7.95;4.88;;;;;;;9.85;63.83;100540.69;4925485;28;114829;-65
2021/11/30 06:21:07;;;;;;;6.65;4.57;;;;;;;9.88;64.10;100549.34;4911841;28;114359;-66
2021/11/30 06:23:34;;;;;;;6.30;4.80;;;;;;;9.91;64.13;100538.63;4925977;28;124114;-65
2021/11/30 06:26:07;;;;;;;7.10;4.43;;;;;;;9.95;63.93;100539.34;4928851;28;123903;-65
2021/11/30 06:28:35;;;;;;;6.15;3.85;;;;;;;9.99;64.09;100540.06;4930322;28;114865;-65
2021/11/30 06:31:03;;;;;;;5.85;4.20;;;;;;;10.03;64.24;100541.63;4927341;28;115312;-65
2021/11/30 06:33:31;;;;;;;5.30;3.75;;;;;;;10.06;64.21;100536.22;4915094;28;123895;-65
2021/11/30 06:35:59;;;;;;;5.53;3.72;;;;;;;10.10;64.05;100538.63;4928775;28;123703;-65
2021/11/30 06:38:26;;;;;;;5.25;3.42;;;;;;;10.15;64.32;100535.75;4927016;28;114156;-65
2021/11/30 06:40:54;;;;;;;5.43;3.28;;;;;;;10.19;64.08;100537.34;4928780;28;114270;-65
2021/11/30 06:43:21;;;;;;;5.35;3.00;;;;;;;10.23;63.93;100528.31;4923392;28;123386;-65
2021/11/30 06:45:48;;;;;;;4.32;2.80;;;;;;;10.26;64.24;100533.44;4930029;28;124159;-65
2021/11/30 06:48:16;;;;;;;4.03;2.70;;;;;;;10.30;64.66;100532.41;4932192;28;114617;-65
2021/11/30 06:50:44;;;;;;;4.85;2.60;;;;;;;10.35;64.17;100533.97;4931544;28;113780;-65
2021/11/30 06:53:11;;;;;;;3.75;2.40;;;;;;;10.39;64.43;100527.56;4928057;28;124561;-66
2021/11/30 06:55:39;;;;;;;3.38;2.00;;;;;;;10.43;64.26;100529.13;4925149;28;123706;-66
2021/11/30 06:58:06;;;;;;;4.28;2.10;;;;;;;10.46;64.62;100523.69;4926965;28;114390;-66
2021/11/30 07:00:33;;;;;;;3.33;2.03;;;;;;;10.51;64.32;100524.34;4923801;28;113991;-66
2021/11/30 07:03:00;;;;;;;3.55;2.25;;;;;;;10.54;64.45;100510.06;4932732;28;124062;-65
2021/11/30 07:05:35;;;;;;;3.88;1.92;;;;;;;10.56;64.50;100514.34;4923057;28;123868;-65
2021/11/30 07:08:21;;;;;;;4.27;2.00;;;;;;;10.59;64.53;100508.91;4916661;28;115585;-65
2021/11/30 07:11:01;;;;;;;2.72;1.90;;;;;;;10.62;64.20;100514.03;4931294;28;114589;-65
2021/11/30 07:13:30;;;;;;;2.60;1.80;;;;;;;10.64;64.62;100506.91;4910555;28;124668;-65
2021/11/30 07:16:01;;;;;;;3.10;2.00;;;;;;;10.66;64.49;100505.03;4924810;28;123741;-66
2021/11/30 07:18:29;;;;;;;2.78;2.10;;;;;;;10.70;64.35;100506.56;4933319;28;113200;-66
2021/11/30 07:20:58;;;;;;;2.83;1.83;;;;;;;10.73;64.29;100510.00;4921889;28;114885;-65
2021/11/30 07:23:25;;;;;;;3.47;1.88;;;;;;;10.75;64.40;100518.72;4917843;28;124605;-66
2021/11/30 07:25:53;;;;;;;3.40;2.35;;;;;;;10.77;64.59;100522.16;4922210;28;124136;-66
2021/11/30 07:28:29;;;;;;;3.70;2.47;;;;;;;10.78;64.42;100531.81;4912212;28;114104;-65
2021/11/30 07:30:59;;;;;;;3.38;2.15;;;;;;;10.81;64.70;100529.00;4920845;28;115194;-65
2021/11/30 07:33:27;;;;;;;3.65;2.22;;;;;;;10.83;64.45;100521.81;4914245;28;124166;-65
2021/11/30 07:35:54;;;;;;;3.75;2.30;;;;;;;10.85;64.63;100530.53;4920533;28;123920;-66
2021/11/30 07:38:21;;;;;;;3.80;2.42;;;;;;;10.86;64.30;100537.56;4920127;28;115140;-65
2021/11/30 07:40:48;;;;;;;4.32;2.42;;;;;;;10.88;64.46;100533.06;4926289;28;114130;-66
2021/11/30 07:43:16;;;;;;;3.42;2.33;;;;;;;10.90;64.46;100539.13;4931640;28;124351;-64
2021/11/30 07:45:44;;;;;;;3.20;2.20;;;;;;;10.92;64.66;100553.16;4928082;28;123923;-64
2021/11/30 07:48:11;;;;;;;3.15;2.22;;;;;;;10.94;64.61;100545.97;4927206;28;115107;-65
2021/11/30 07:50:38;;;;;;;5.20;2.65;;;;;;;10.95;64.68;100555.66;4932609;28;113000;-65
2021/11/30 07:53:05;;;;;;;4.05;2.42;;;;;;;10.97;64.75;100556.44;4931879;28;123964;-65
2021/11/30 07:55:33;;;;;;;3.88;2.65;;;;;;;10.99;64.52;100559.84;4930500;28;123858;-65
2021/11/30 07:58:00;;;;;;;4.15;2.38;;;;;;;11.00;64.58;100556.28;4928549;28;115744;-65
2021/11/30 08:00:27;;;;;;;4.32;2.15;;;;;;;11.02;64.59;100565.00;4929685;28;115169;-65
2021/11/30 08:02:55;;;;;;;3.35;2.17;;;;;;;11.04;64.56;100562.28;4933077;28;124363;-65
2021/11/30 08:05:22;;;;;;;3.28;2.28;;;;;;;11.05;64.79;100559.53;4933329;28;124963;-64
2021/11/30 08:07:49;;;;;;;3.70;2.30;;;;;;;11.07;64.71;100555.00;4929517;28;114205;-63
2021/11/30 08:10:17;;;;;;;3.80;2.33;;;;;;;11.09;64.69;100555.81;4930580;28;114283;-65
2021/11/30 08:12:45;;;;;;;3.10;2.15;;;;;;;11.10;64.49;100557.50;4932402;28;124688;-63
2021/11/30 08:15:14;;;;;;;4.13;2.30;;;;;;;11.13;64.84;100555.63;4930582;28;124593;-66
2021/11/30 08:17:58;;;;;;;4.13;2.42;;;;;;;11.14;64.69;100554.72;4932387;28;114144;-64
2021/11/30 08:20:26;;;;;;;3.10;2.20;;;;;;;11.16;64.83;100553.69;4922562;28;114662;-64
2021/11/30 08:22:53;;;;;;;4.15;2.20;;;;;;;11.19;64.67;100550.00;4928594;28;123027;-65
2021/11/30 08:25:21;;;;;;;3.42;2.42;;;;;;;11.21;64.91;100558.75;4916250;28;123785;-65
2021/11/30 08:27:49;;;;;;;3.60;2.28;;;;;;;11.24;64.87;100558.56;4916073;28;114061;-65
2021/11/30 08:30:30;;;;;;;3.15;2.20;;;;;;;11.25;64.57;100561.16;4917589;28;112852;-66
2021/11/30 08:32:58;;;;;;;5.30;2.28;;;;;;;11.27;64.59;100547.81;4932967;28;124038;-66
2021/11/30 08:35:26;;;;;;;3.47;2.40;;;;;;;11.30;64.84;100552.94;4927946;28;123629;-65
2021/11/30 08:37:53;;;;;;;3.22;2.28;;;;;;;11.32;64.95;100555.53;4916277;28;114315;-66
2021/11/30 08:40:21;;;;;;;3.58;2.38;;;;;;;11.34;65.02;100543.91;4929891;28;114031;-66
2021/11/30 08:42:48;;;;;;;3.50;2.20;;;;;;;11.38;64.83;100545.47;4927522;28;124034;-66
2021/11/30 08:45:15;;;;;;;3.60;2.42;;;;;;;11.40;64.71;100548.88;4907622;28;123404;-65
2021/11/30 08:47:42;;;;;;;3.30;2.42;;;;;;;11.41;64.93;100539.97;4930087;28;114945;-66
2021/11/30 08:50:14;;;;;;;3.55;2.30;;;;;;;11.44;65.13;100539.81;4931457;28;115271;-65
2021/11/30 08:52:44;;;;;;;4.35;2.60;;;;;;;11.46;64.82;100543.25;4932445;28;124273;-65
2021/11/30 08:55:13;;;;;;;4.90;2.72;;;;;;;11.49;64.89;100545.75;4930328;28;123728;-65
2021/11/30 08:57:40;;;;;;;4.88;2.97;;;;;;;11.53;64.98;100545.56;4930122;28;114023;-65
2021/11/30 09:00:10;;;;;;;4.68;3.33;;;;;;;11.55;65.07;100546.38;4930048;28;114165;-65
2021/11/30 09:02:39;;;;;;;4.90;2.75;;;;;;;11.59;65.00;100547.91;4933558;28;98796;-65
2021/11/30 09:05:08;;;;;;;5.18;3.40;;;;;;;11.60;64.98;100539.00;4925338;28;123128;-65
2021/11/30 09:07:35;;;;;;;5.43;3.42;;;;;;;11.65;64.89;100536.94;4911339;28;114659;-65
2021/11/30 09:10:05;;;;;;;4.75;3.45;;;;;;;11.66;65.30;100539.53;4915959;28;115275;-66
2021/11/30 09:12:33;;;;;;;5.50;3.42;;;;;;;11.71;65.21;100531.31;4920197;28;123938;-65
2021/11/30 09:15:00;;;;;;;4.93;3.53;;;;;;;11.76;65.16;100537.22;4927900;28;123956;-66
2021/11/30 09:17:50;;;;;;;5.70;3.20;;;;;;;11.81;65.45;100540.50;4931536;28;113967;-65
2021/11/30 09:20:18;;;;;;;7.55;3.45;;;;;;;11.86;65.35;100540.22;4929143;28;115702;-65
2021/11/30 09:22:46;;;;;;;6.60;3.30;;;;;;;11.90;65.46;100535.63;4932019;28;124217;-65
2021/11/30 09:25:13;;;;;;;6.00;3.72;;;;;;;11.95;65.68;100538.91;4930890;28;123793;-65
2021/11/30 09:27:40;;;;;;;4.88;3.38;;;;;;;12.00;65.68;100536.84;4929197;28;114586;-65
2021/11/30 09:30:11;;;;;;;5.18;3.30;;;;;;;12.07;65.65;100543.50;4927496;28;114286;-65
2021/11/30 09:32:40;;;;;;;4.80;3.20;;;;;;;12.11;65.76;100545.06;4928765;28;124095;-65
2021/11/30 09:35:10;;;;;;;3.53;2.67;;;;;;;12.18;65.74;100546.41;4920068;28;123210;-65
2021/11/30 09:37:39;;;;;;;5.88;3.25;;;;;;;12.22;65.61;100542.66;4920042;28;115755;-65
2021/11/30 09:40:08;;;;;;;4.10;2.92;;;;;;;12.29;65.67;100542.31;4928991;28;115225;-66
2021/11/30 09:42:36;;;;;;;3.80;2.70;;;;;;;12.34;65.63;100556.16;4931356;28;123945;-65
2021/11/30 09:45:05;;;;;;;4.45;2.78;;;;;;;12.39;65.76;100559.41;4929869;28;124365;-65
2021/11/30 09:47:33;;;;;;;4.53;3.00;;;;;;;12.45;65.85;100559.06;4932632;28;114398;-65
2021/11/30 09:50:01;;;;;;;5.63;2.90;;;;;;;12.49;65.86;100557.97;4929936;28;114219;-65
2021/11/30 09:52:28;;;;;;;5.60;2.83;;;;;;;12.53;65.73;100554.16;4931502;28;123872;-66
2021/11/30 09:54:55;;;;;;;4.55;2.80;;;;;;;12.57;65.70;100566.31;4931384;28;123867;-65
2021/11/30 09:57:22;;;;;;;3.75;2.75;;;;;;;12.60;65.78;100558.19;4930149;28;114863;-65
2021/11/30 09:59:50;;;;;;;5.07;3.10;;;;;;;12.64;65.86;100561.53;4928937;28;114273;-64
2021/11/30 10:02:17;;;;;;;4.88;3.00;;;;;;;12.68;65.74;100570.16;4930843;28;124890;-65
2021/11/30 10:04:45;;;;;;;4.88;3.00;;;;;;;12.72;65.82;100571.72;4929766;28;123883;-65
2021/11/30 10:07:12;;;;;;;4.35;3.05;;;;;;;12.75;65.85;100571.50;4921493;28;113958;-65
2021/11/30 10:09:40;;;;;;;3.83;2.65;;;;;;;12.76;65.76;100552.81;4927606;28;114805;-65
2021/11/30 10:12:10;;;;;;;3.38;2.40;;;;;;;12.79;65.73;100559.75;4930869;28;124119;-64
2021/11/30 10:14:41;;;;;;;4.43;2.70;;;;;;;12.83;65.82;100563.97;4917325;28;124341;-65
2021/11/30 10:17:08;;;;;;;3.50;2.63;;;;;;;12.85;65.76;100556.75;4923613;28;113471;-64
2021/11/30 10:19:37;;;;;;;3.95;2.85;;;;;;;12.89;65.95;100552.97;4934228;28;112981;-64
2021/11/30 10:22:04;;;;;;;5.55;2.78;;;;;;;12.92;65.82;100552.78;4931076;28;123909;-64
2021/11/30 10:24:33;;;;;;;4.90;2.85;;;;;;;12.94;65.90;100553.56;4934326;28;123408;-64
2021/11/30 10:27:00;;;;;;;3.40;2.40;;;;;;;12.96;65.98;100564.94;4933037;28;115352;-64
2021/11/30 10:29:29;;;;;;;3.40;2.60;;;;;;;12.99;65.88;100570.06;4927905;28;115215;-64
2021/11/30 10:31:57;;;;;;;4.95;2.75;;;;;;;13.02;65.95;100553.94;4932180;28;124791;-65
2021/11/30 10:34:28;;;;;;;4.72;2.85;;;;;;;13.06;66.01;100549.28;4930609;28;124347;-65
2021/11/30 10:37:03;;;;;;;4.07;2.30;;;;;;;13.08;65.77;100554.53;4930956;28;114889;-64
2021/11/30 10:39:33;;;;;;;3.78;2.40;;;;;;;13.10;65.82;100555.28;4933333;28;113989;-64
2021/11/30 10:42:18;;;;;;;3.22;2.20;;;;;;;13.12;65.71;100558.69;4933350;28;124080;-64
2021/11/30 10:44:47;;;;;;;5.85;2.53;;;;;;;13.12;65.79;100559.56;4925665;28;123901;-64
2021/11/30 10:47:20;;;;;;;4.18;2.22;;;;;;;13.14;65.82;100556.81;4930802;28;115106;-64
2021/11/30 10:50:00;;;;;;;3.47;2.55;;;;;;;13.15;65.88;100561.19;4934530;28;114323;-65
2021/11/30 10:52:30;;;;;;;3.08;2.45;;;;;;;13.16;65.68;100560.22;4929228;28;124001;-64
2021/11/30 10:55:08;;;;;;;7.75;2.92;;;;;;;13.18;65.86;100564.50;4930874;28;125455;-64
2021/11/30 10:57:37;;;;;;;5.07;2.80;;;;;;;13.20;65.83;100562.63;4921521;28;114619;-64
2021/11/30 11:00:13;;;;;;;6.05;3.10;;;;;;;13.23;65.81;100561.56;4922401;28;114597;-63
2021/11/30 11:03:10;;;;;;;6.60;3.00;;;;;;;13.24;65.74;100563.25;4946344;28;123296;-63
2021/11/30 11:05:44;;;;;;;6.75;2.92;;;;;;;13.26;65.72;100566.72;4916350;28;124381;-64
2021/11/30 11:08:13;;;;;;;6.97;2.95;;;;;;;13.28;65.78;100570.13;4915032;28;114653;-63
2021/11/30 11:11:02;;;;;;;9.15;3.65;;;;;;;13.28;65.77;100564.81;4915245;28;113984;-63
2021/11/30 11:13:32;;;;;;;5.53;2.70;;;;;;;13.30;65.77;100573.59;4918618;28;124159;-63
2021/11/30 11:16:05;;;;;;;5.95;3.13;;;;;;;13.31;65.71;100575.28;4930598;28;124405;-63
2021/11/30 11:18:41;;;;;;;4.70;3.00;;;;;;;13.30;65.67;100568.25;4933492;28;115273;-63
2021/11/30 11:21:20;;;;;;;5.45;2.85;;;;;;;13.32;65.71;100566.38;4931389;28;114651;-63
2021/11/30 11:24:01;;;;;;;3.95;2.92;;;;;;;13.33;65.80;100568.06;4931809;28;124103;-63
2021/11/30 11:26:36;;;;;;;5.70;2.88;;;;;;;13.35;65.73;100563.50;4931444;28;123284;-65
2021/11/30 11:29:07;;;;;;;9.40;3.22;;;;;;;13.37;65.77;100569.59;4913002;28;114596;-63
2021/11/30 11:31:37;;;;;;;5.60;3.00;;;;;;;13.37;65.69;100569.59;4926310;28;113743;-63
2021/11/30 11:34:07;;;;;;;7.43;3.00;;;;;;;13.39;65.64;100572.16;4931287;28;124214;-63
2021/11/30 11:36:35;;;;;;;7.18;3.60;;;;;;;13.40;65.71;100564.06;4933556;28;122723;-62